Time;durP1;ratioP1;P1;durP2;ratioP2;P2;SDS_P1;SDS_P2;PMS_P1;PMS_P2;Temp;Humidity;BMP_temperature;BMP_pressure;BME280_temperature;BME280_humidity;BME280_pressure;Samples;Min_cycle;Max_cycle;Signal;HPM_P1;HPM_P2
2023/05/10 00:00:08;;;;;;;49.22;20.73;;;12.70;99.90;;;;;;5041101;28;20048;-67
2023/05/10 00:02:34;;;;;;;46.97;21.02;;;12.50;99.90;;;;;;5042847;28;20412;-66
2023/05/10 00:05:00;;;;;;;43.50;19.75;;;12.70;99.90;;;;;;5043539;28;20045;-65
2023/05/10 00:07:25;;;;;;;42.33;19.42;;;12.50;99.90;;;;;;5044250;28;20037;-65
2023/05/10 00:09:51;;;;;;;45.72;19.80;;;12.60;99.90;;;;;;5043562;28;20127;-65
2023/05/10 00:12:17;;;;;;;41.67;18.70;;;12.60;99.90;;;;;;5040757;28;20132;-65
2023/05/10 00:14:42;;;;;;;38.17;18.25;;;12.60;99.90;;;;;;5038852;28;20033;-67
2023/05/10 00:17:08;;;;;;;35.55;15.63;;;12.70;99.90;;;;;;5047559;28;20052;-67
2023/05/10 00:19:33;;;;;;;30.38;14.52;;;12.50;99.90;;;;;;5039776;28;20045;-69
2023/05/10 00:21:59;;;;;;;30.40;14.57;;;12.60;99.90;;;;;;5038538;28;20045;-65
2023/05/10 00:24:24;;;;;;;30.08;14.20;;;12.60;99.90;;;;;;5056786;28;20358;-65
2023/05/10 00:26:50;;;;;;;29.13;14.27;;;12.60;99.90;;;;;;5027314;28;20036;-64
2023/05/10 00:29:16;;;;;;;32.08;14.18;;;12.60;99.90;;;;;;5042455;28;20071;-66
2023/05/10 00:31:41;;;;;;;25.15;13.40;;;12.40;99.90;;;;;;5041252;28;20048;-63
2023/05/10 00:34:07;;;;;;;31.13;14.63;;;12.50;99.90;;;;;;5041755;28;20044;-64
2023/05/10 00:36:32;;;;;;;28.05;13.63;;;12.40;99.90;;;;;;5046791;28;20052;-65
2023/05/10 00:38:58;;;;;;;31.85;14.20;;;12.50;99.90;;;;;;5043380;28;20048;-64
2023/05/10 00:41:23;;;;;;;27.98;13.98;;;12.50;99.90;;;;;;5038455;28;20049;-65
2023/05/10 00:43:49;;;;;;;30.48;13.70;;;12.40;99.90;;;;;;5075574;28;20041;-63
2023/05/10 00:46:15;;;;;;;21.52;11.93;;;12.30;99.90;;;;;;5037611;28;20041;-65
2023/05/10 00:48:42;;;;;;;29.02;12.80;;;12.40;99.90;;;;;;5038853;28;20045;-65
2023/05/10 00:51:07;;;;;;;26.88;12.82;;;12.40;99.90;;;;;;5042686;28;20128;-63
2023/05/10 00:53:34;;;;;;;33.58;13.68;;;12.50;99.90;;;;;;5043994;28;20115;-64
2023/05/10 00:56:01;;;;;;;26.63;12.20;;;12.40;99.90;;;;;;5044962;28;20079;-65
2023/05/10 00:58:28;;;;;;;26.65;12.77;;;12.40;99.90;;;;;;5045118;28;20430;-64
2023/05/10 01:00:56;;;;;;;20.80;11.77;;;12.50;99.90;;;;;;5040192;28;20090;-64
2023/05/10 01:03:21;;;;;;;22.20;11.68;;;12.50;99.90;;;;;;5039087;28;20048;-65
2023/05/10 01:05:47;;;;;;;22.88;11.55;;;12.50;99.90;;;;;;5051119;28;20403;-64
2023/05/10 01:08:13;;;;;;;21.75;11.30;;;12.50;99.90;;;;;;5047297;28;20041;-65
2023/05/10 01:10:38;;;;;;;24.75;11.55;;;12.40;99.90;;;;;;5041893;28;20073;-63
2023/05/10 01:13:04;;;;;;;21.25;11.15;;;12.20;99.90;;;;;;5048839;28;20174;-63
2023/05/10 01:15:30;;;;;;;22.67;11.80;;;12.40;99.90;;;;;;5047398;28;20083;-63
2023/05/10 01:17:57;;;;;;;20.60;11.18;;;12.20;99.90;;;;;;5041864;28;20044;-65
2023/05/10 01:20:24;;;;;;;24.05;11.13;;;12.20;99.90;;;;;;5044956;28;20041;-64
2023/05/10 01:23:27;;;;;;;23.30;11.10;;;12.40;99.90;;;;;;5041901;28;20041;-64
2023/05/10 01:26:11;;;;;;;;;;;12.30;99.90;;;;;;5047473;28;20029;-64
2023/05/10 01:29:08;;;;;;;24.70;12.13;;;12.40;99.90;;;;;;5043425;28;19927;-63
2023/05/10 01:32:08;;;;;;;21.27;11.35;;;12.20;99.90;;;;;;5045718;28;20055;-63
2023/05/10 01:34:54;;;;;;;24.85;11.82;;;12.10;99.90;;;;;;5003797;28;20128;-63
2023/05/10 01:37:41;;;;;;;21.60;10.80;;;12.10;99.90;;;;;;5029744;28;20435;-64
2023/05/10 01:40:10;;;;;;;21.90;11.02;;;12.30;99.90;;;;;;5040619;28;20049;-65
2023/05/10 01:42:46;;;;;;;22.83;10.93;;;12.20;99.90;;;;;;5048820;28;20036;-64
2023/05/10 01:45:48;;;;;;;20.23;10.50;;;12.30;99.90;;;;;;5046268;28;20037;-64
2023/05/10 01:48:15;;;;;;;18.73;10.23;;;12.10;99.90;;;;;;4977459;28;20157;-63
2023/05/10 01:50:45;;;;;;;19.17;10.25;;;12.20;99.90;;;;;;5049168;28;20051;-64
2023/05/10 01:53:12;;;;;;;21.10;10.65;;;12.30;99.90;;;;;;5049731;28;20041;-63
2023/05/10 01:55:52;;;;;;;23.02;10.43;;;12.30;99.90;;;;;;5044034;28;20127;-63
2023/05/10 01:58:32;;;;;;;19.30;10.20;;;12.20;99.90;;;;;;5044248;28;20056;-63
2023/05/10 02:01:02;;;;;;;20.33;9.75;;;12.10;99.90;;;;;;5049961;28;20039;-64
2023/05/10 02:03:30;;;;;;;20.17;9.93;;;12.10;99.90;;;;;;5052937;28;20052;-64
2023/05/10 02:05:57;;;;;;;21.33;10.15;;;12.00;99.90;;;;;;5044208;28;20399;-64
2023/05/10 02:08:23;;;;;;;21.60;9.85;;;12.10;99.90;;;;;;5041666;28;20060;-63
2023/05/10 02:10:52;;;;;;;19.55;10.07;;;12.00;99.90;;;;;;5035593;28;20060;-63
2023/05/10 02:13:19;;;;;;;19.67;10.05;;;12.00;99.90;;;;;;5047943;28;20052;-63
2023/05/10 02:15:47;;;;;;;20.90;10.15;;;12.20;99.90;;;;;;5050336;28;20087;-64
2023/05/10 02:18:14;;;;;;;19.88;10.27;;;12.00;99.90;;;;;;5047931;28;20035;-64
2023/05/10 02:20:41;;;;;;;20.70;10.30;;;12.10;99.90;;;;;;5048982;28;20057;-62
2023/05/10 02:23:09;;;;;;;19.65;10.25;;;12.20;99.90;;;;;;5050490;28;20041;-64
2023/05/10 02:25:38;;;;;;;23.88;10.75;;;12.20;99.90;;;;;;5035390;28;20545;-64
2023/05/10 02:28:06;;;;;;;19.52;9.95;;;12.20;99.90;;;;;;5042206;28;20064;-63
2023/05/10 02:30:34;;;;;;;20.70;10.57;;;12.20;99.90;;;;;;5048859;28;20040;-64
2023/05/10 02:33:01;;;;;;;24.85;10.93;;;12.10;99.90;;;;;;5041412;28;20068;-63
2023/05/10 02:35:28;;;;;;;19.10;10.05;;;12.00;99.90;;;;;;5043408;28;20438;-63
2023/05/10 02:37:54;;;;;;;24.27;10.77;;;12.20;99.90;;;;;;5041932;28;20036;-63
2023/05/10 02:40:22;;;;;;;23.88;10.52;;;12.10;99.90;;;;;;5046691;28;20051;-63
2023/05/10 02:42:50;;;;;;;25.55;11.30;;;12.20;99.90;;;;;;5041937;28;20045;-63
2023/05/10 02:45:19;;;;;;;22.67;10.77;;;12.20;99.90;;;;;;5044185;28;20072;-63
2023/05/10 02:47:45;;;;;;;22.30;10.80;;;12.00;99.90;;;;;;5048791;28;20075;-65
2023/05/10 02:50:10;;;;;;;24.05;11.20;;;12.30;99.90;;;;;;5046350;28;20459;-64
2023/05/10 02:52:44;;;;;;;28.55;11.95;;;12.20;99.90;;;;;;5037545;28;20044;-63
2023/05/10 02:55:13;;;;;;;23.77;12.48;;;12.10;99.90;;;;;;5047661;28;20045;-64
2023/05/10 02:57:45;;;;;;;27.33;11.88;;;12.20;99.90;;;;;;5048419;28;20049;-64
2023/05/10 03:00:11;;;;;;;23.40;11.55;;;12.00;99.90;;;;;;5040904;28;20094;-64
2023/05/10 03:02:36;;;;;;;24.42;11.98;;;12.20;99.90;;;;;;5042701;28;20040;-64
2023/05/10 03:05:03;;;;;;;22.83;11.95;;;12.20;99.90;;;;;;5042957;28;20044;-64
2023/05/10 03:07:29;;;;;;;23.73;11.65;;;12.00;99.90;;;;;;5038564;28;20554;-64
2023/05/10 03:09:55;;;;;;;23.23;11.70;;;12.10;99.90;;;;;;5042046;28;20033;-65
2023/05/10 03:12:53;;;;;;;25.42;12.45;;;12.20;99.90;;;;;;5043072;28;20107;-65
2023/05/10 03:15:31;;;;;;;24.80;11.70;;;12.20;99.90;;;;;;5041181;28;20478;-63
2023/05/10 03:18:18;;;;;;;23.55;12.00;;;12.20;99.90;;;;;;5037700;28;20043;-65
2023/05/10 03:20:49;;;;;;;23.80;12.00;;;12.20;99.90;;;;;;5042229;28;20041;-64
2023/05/10 03:23:18;;;;;;;23.00;12.32;;;12.00;99.90;;;;;;5038068;28;20060;-64
2023/05/10 03:25:46;;;;;;;21.65;11.73;;;12.00;99.90;;;;;;5047216;28;20105;-63
2023/05/10 03:28:13;;;;;;;21.63;11.50;;;12.10;99.90;;;;;;5040816;28;20065;-64
2023/05/10 03:30:40;;;;;;;21.95;11.95;;;12.20;99.90;;;;;;5038116;28;20045;-64
2023/05/10 03:33:06;;;;;;;22.60;11.88;;;12.10;99.90;;;;;;5040774;28;20277;-63
2023/05/10 03:35:32;;;;;;;24.30;12.27;;;12.20;99.90;;;;;;5047062;28;20037;-64
2023/05/10 03:37:57;;;;;;;26.33;12.88;;;12.00;99.90;;;;;;5034103;28;20053;-65
2023/05/10 03:40:24;;;;;;;25.10;12.50;;;12.20;99.90;;;;;;5045491;28;20048;-65
2023/05/10 03:42:50;;;;;;;24.30;12.63;;;12.20;99.90;;;;;;5042300;28;20111;-64
2023/05/10 03:45:15;;;;;;;25.75;12.85;;;12.20;99.90;;;;;;5046609;28;20041;-65
2023/05/10 03:47:41;;;;;;;22.48;12.10;;;12.20;99.90;;;;;;5044148;28;20480;-63
2023/05/10 03:50:07;;;;;;;25.92;12.88;;;12.10;99.90;;;;;;5046699;28;20051;-64
2023/05/10 03:52:33;;;;;;;26.20;12.98;;;12.30;99.90;;;;;;5043373;28;21221;-65
2023/05/10 03:54:58;;;;;;;24.23;12.73;;;12.20;99.90;;;;;;5045787;28;20049;-64
2023/05/10 03:57:24;;;;;;;25.15;13.63;;;12.10;99.90;;;;;;5039704;28;22407;-65
2023/05/10 03:59:50;;;;;;;28.20;13.23;;;12.10;99.90;;;;;;5042379;28;20041;-64
2023/05/10 04:02:15;;;;;;;24.33;11.98;;;12.10;99.90;;;;;;5042524;28;20121;-66
2023/05/10 04:04:41;;;;;;;23.10;12.10;;;12.30;99.90;;;;;;5042028;28;20033;-66
2023/05/10 04:07:07;;;;;;;23.85;12.77;;;12.10;99.90;;;;;;5035382;28;20423;-66
2023/05/10 04:09:33;;;;;;;27.63;11.70;;;12.20;99.90;;;;;;5038905;28;20099;-65
2023/05/10 04:12:00;;;;;;;24.98;12.20;;;12.30;99.90;;;;;;5038690;28;20037;-65
2023/05/10 04:14:26;;;;;;;21.90;11.20;;;12.30;99.90;;;;;;5041653;28;20558;-65
2023/05/10 04:16:51;;;;;;;20.95;11.38;;;12.10;99.90;;;;;;5043944;28;20037;-65
2023/05/10 04:19:17;;;;;;;23.73;11.40;;;12.10;99.90;;;;;;5037715;28;20080;-65
2023/05/10 04:21:42;;;;;;;23.48;11.00;;;12.30;99.90;;;;;;5038123;28;20090;-65
2023/05/10 04:24:08;;;;;;;23.58;11.10;;;12.20;99.90;;;;;;5040680;28;20032;-66
2023/05/10 04:26:33;;;;;;;23.13;10.57;;;12.10;99.90;;;;;;5038856;28;20044;-65
2023/05/10 04:28:59;;;;;;;18.30;9.73;;;12.30;99.90;;;;;;5040222;28;20077;-64
2023/05/10 04:31:24;;;;;;;19.90;9.98;;;12.10;99.90;;;;;;5034441;28;20103;-64
2023/05/10 04:33:50;;;;;;;24.38;10.50;;;12.10;99.90;;;;;;5035119;28;20056;-65
2023/05/10 04:36:15;;;;;;;23.25;10.90;;;12.10;99.90;;;;;;5033090;28;20583;-63
2023/05/10 04:38:42;;;;;;;22.42;11.10;;;12.10;99.90;;;;;;5034497;28;20045;-64
2023/05/10 04:41:10;;;;;;;21.58;11.30;;;12.20;99.90;;;;;;5036479;28;20502;-64
2023/05/10 04:43:36;;;;;;;22.67;11.32;;;12.20;99.90;;;;;;5042677;28;20047;-65
2023/05/10 04:46:02;;;;;;;23.10;10.90;;;12.20;99.90;;;;;;5041479;28;20066;-64
2023/05/10 04:48:28;;;;;;;23.00;10.90;;;12.10;99.90;;;;;;5040211;28;20044;-65
2023/05/10 04:50:53;;;;;;;20.10;10.48;;;12.00;99.90;;;;;;5038803;28;20033;-66
2023/05/10 04:53:19;;;;;;;20.63;10.32;;;12.10;99.90;;;;;;5043881;28;20052;-66
2023/05/10 04:55:45;;;;;;;20.08;10.00;;;12.10;99.90;;;;;;5045391;28;20094;-66
2023/05/10 04:58:11;;;;;;;20.83;9.80;;;12.10;99.90;;;;;;5040509;28;20098;-66
2023/05/10 05:00:36;;;;;;;20.23;9.75;;;12.10;99.90;;;;;;5042666;28;20076;-66
2023/05/10 05:03:02;;;;;;;19.65;9.98;;;12.20;99.90;;;;;;5043935;28;20036;-66
2023/05/10 05:05:27;;;;;;;20.35;10.00;;;12.10;99.90;;;;;;5036714;28;21083;-66
2023/05/10 05:07:53;;;;;;;21.13;10.48;;;12.20;99.90;;;;;;5028772;28;20046;-66
2023/05/10 05:10:19;;;;;;;24.55;10.73;;;12.10;99.90;;;;;;5036536;28;20040;-66
2023/05/10 05:12:44;;;;;;;25.05;11.68;;;12.00;99.90;;;;;;5069981;28;20190;-68
2023/05/10 05:15:10;;;;;;;29.67;11.52;;;12.00;99.90;;;;;;5039338;28;20041;-65
2023/05/10 05:17:36;;;;;;;24.83;11.45;;;12.20;99.90;;;;;;5039325;28;20045;-66
2023/05/10 05:20:02;;;;;;;24.90;10.90;;;12.20;99.90;;;;;;5036721;28;20057;-66
2023/05/10 05:22:28;;;;;;;30.08;11.65;;;12.00;99.90;;;;;;5035659;28;20357;-67
2023/05/10 05:24:54;;;;;;;29.10;11.63;;;12.10;99.90;;;;;;5037748;28;20036;-65
2023/05/10 05:27:24;;;;;;;25.00;11.77;;;12.20;99.90;;;;;;5032483;28;20047;-65
2023/05/10 05:29:53;;;;;;;38.05;12.75;;;12.00;99.90;;;;;;5035957;28;20044;-66
2023/05/10 05:32:19;;;;;;;34.75;12.43;;;12.10;99.90;;;;;;5036966;28;20140;-66
2023/05/10 05:34:45;;;;;;;38.22;12.90;;;12.00;99.90;;;;;;5034400;28;20787;-65
2023/05/10 05:37:20;;;;;;;34.17;12.23;;;12.10;99.90;;;;;;5030788;28;20051;-66
2023/05/10 05:39:46;;;;;;;31.55;12.70;;;12.00;99.90;;;;;;5038631;28;20029;-66
2023/05/10 05:42:13;;;;;;;31.30;12.65;;;12.20;99.90;;;;;;5038414;28;20372;-67
2023/05/10 05:44:39;;;;;;;33.97;13.13;;;12.20;99.90;;;;;;5044195;28;20051;-66
2023/05/10 05:47:05;;;;;;;40.42;13.55;;;12.30;99.90;;;;;;5042256;28;20166;-67
2023/05/10 05:49:31;;;;;;;40.38;12.90;;;12.10;99.90;;;;;;5043423;28;20043;-67
2023/05/10 05:52:03;;;;;;;33.72;13.10;;;12.20;99.90;;;;;;5036494;28;20025;-66
2023/05/10 05:54:29;;;;;;;;;;;12.30;99.90;;;;;;5041714;28;20050;-66
2023/05/10 05:56:59;;;;;;;37.70;12.75;;;12.40;99.90;;;;;;5044569;28;19927;-65
2023/05/10 05:59:25;;;;;;;36.38;13.00;;;12.20;99.90;;;;;;5072243;28;20045;-65
2023/05/10 06:01:50;;;;;;;42.47;13.57;;;12.40;99.90;;;;;;5042291;28;20531;-65
2023/05/10 06:04:17;;;;;;;33.03;11.68;;;12.40;99.90;;;;;;5043871;28;20256;-66
2023/05/10 06:06:42;;;;;;;35.58;11.65;;;12.30;99.90;;;;;;5041437;28;20483;-66
2023/05/10 06:09:09;;;;;;;29.02;10.77;;;12.50;99.90;;;;;;5035542;28;20086;-66
2023/05/10 06:11:35;;;;;;;29.48;11.38;;;12.40;99.90;;;;;;5043103;28;20045;-65
2023/05/10 06:14:01;;;;;;;31.95;11.13;;;12.50;99.90;;;;;;5039035;28;20049;-66
2023/05/10 06:16:27;;;;;;;31.98;11.02;;;12.50;99.90;;;;;;5038258;28;20067;-66
2023/05/10 06:18:53;;;;;;;29.33;10.48;;;12.80;99.90;;;;;;5037267;28;20172;-70
2023/05/10 06:21:19;;;;;;;29.75;10.80;;;12.80;99.90;;;;;;5043686;28;20127;-67
2023/05/10 06:23:44;;;;;;;23.75;10.10;;;12.80;99.90;;;;;;5036970;28;20040;-66
2023/05/10 06:26:10;;;;;;;28.90;11.70;;;12.90;99.90;;;;;;5021691;28;20392;-66
2023/05/10 06:28:38;;;;;;;27.55;11.23;;;12.80;99.90;;;;;;5041006;28;20044;-67
2023/05/10 06:31:04;;;;;;;27.23;10.27;;;13.10;99.90;;;;;;5034697;28;20331;-66
2023/05/10 06:33:29;;;;;;;24.73;10.18;;;12.90;99.90;;;;;;5044753;28;20078;-68
2023/05/10 06:35:55;;;;;;;27.65;10.95;;;13.20;99.90;;;;;;5039456;28;20118;-67
2023/05/10 06:38:21;;;;;;;27.45;10.82;;;13.10;99.90;;;;;;5039711;28;20479;-66
2023/05/10 06:40:46;;;;;;;21.98;10.00;;;13.10;99.90;;;;;;5036600;28;20036;-66
2023/05/10 06:43:12;;;;;;;22.83;9.25;;;12.90;99.90;;;;;;5044946;28;20124;-67
2023/05/10 06:45:37;;;;;;;24.02;10.13;;;13.00;99.90;;;;;;5074758;28;20041;-65
2023/05/10 06:48:05;;;;;;;24.45;9.85;;;12.80;99.90;;;;;;5037706;28;20135;-66
2023/05/10 06:50:31;;;;;;;23.88;9.60;;;12.90;99.90;;;;;;5046087;28;20045;-67
2023/05/10 06:52:56;;;;;;;23.85;9.75;;;12.80;99.90;;;;;;5040034;28;20231;-70
2023/05/10 06:55:22;;;;;;;20.98;9.27;;;12.80;99.90;;;;;;5074869;28;20041;-65
2023/05/10 06:57:47;;;;;;;20.60;9.57;;;12.90;99.90;;;;;;5043119;28;20048;-65
2023/05/10 07:00:14;;;;;;;19.48;9.05;;;13.00;99.90;;;;;;5043866;28;20045;-66
2023/05/10 07:02:39;;;;;;;19.65;9.50;;;12.90;99.90;;;;;;5037941;28;20048;-68
2023/05/10 07:05:05;;;;;;;20.17;8.68;;;12.90;99.90;;;;;;5021866;28;20041;-66
2023/05/10 07:07:31;;;;;;;16.42;8.18;;;13.00;99.90;;;;;;5042898;28;20399;-66
2023/05/10 07:09:57;;;;;;;18.38;8.60;;;13.00;99.90;;;;;;5039010;28;20041;-66
2023/05/10 07:12:23;;;;;;;17.67;8.68;;;12.80;99.90;;;;;;5042207;28;20567;-66
2023/05/10 07:14:49;;;;;;;16.65;8.27;;;13.00;99.90;;;;;;5039928;28;20044;-66
2023/05/10 07:17:15;;;;;;;18.52;8.95;;;13.00;99.90;;;;;;5071943;28;20044;-66
2023/05/10 07:19:40;;;;;;;16.80;8.13;;;13.00;99.90;;;;;;5040696;28;20056;-66
2023/05/10 07:22:06;;;;;;;15.43;7.55;;;12.80;99.90;;;;;;5071805;28;20036;-66
2023/05/10 07:24:32;;;;;;;19.42;8.02;;;13.00;99.90;;;;;;5041432;28;20033;-67
2023/05/10 07:26:58;;;;;;;14.90;7.55;;;12.90;99.90;;;;;;5041481;28;20138;-66
2023/05/10 07:29:24;;;;;;;15.95;7.50;;;12.80;99.90;;;;;;5079980;28;20060;-65
2023/05/10 07:31:49;;;;;;;17.77;7.80;;;12.90;99.90;;;;;;5044600;28;20045;-66
2023/05/10 07:34:15;;;;;;;16.13;7.82;;;12.90;99.90;;;;;;5075374;28;20088;-65
2023/05/10 07:36:41;;;;;;;16.38;7.18;;;12.80;99.90;;;;;;5034061;28;20266;-65
2023/05/10 07:39:07;;;;;;;14.32;7.25;;;13.00;99.90;;;;;;5035887;28;20453;-68
2023/05/10 07:41:32;;;;;;;14.68;7.25;;;13.00;99.90;;;;;;5068600;28;20042;-66
2023/05/10 07:43:58;;;;;;;12.57;7.00;;;13.10;99.90;;;;;;5033470;28;20495;-67
2023/05/10 07:46:23;;;;;;;14.93;6.68;;;13.20;99.90;;;;;;5049465;28;20052;-65
2023/05/10 07:48:49;;;;;;;14.23;6.93;;;13.30;99.90;;;;;;5045855;28;20080;-67
2023/05/10 07:51:15;;;;;;;10.55;6.40;;;13.40;99.90;;;;;;5049285;28;20487;-66
2023/05/10 07:53:40;;;;;;;12.90;6.97;;;13.60;99.90;;;;;;5044222;28;20082;-67
2023/05/10 07:56:27;;;;;;;10.90;6.70;;;13.70;99.90;;;;;;5045839;28;20055;-66
2023/05/10 07:58:53;;;;;;;10.82;6.03;;;13.90;99.90;;;;;;5033318;28;20044;-69
2023/05/10 08:01:20;;;;;;;8.38;5.57;;;14.00;99.90;;;;;;5043810;28;20049;-70
2023/05/10 08:03:45;;;;;;;11.18;6.28;;;14.00;99.90;;;;;;5047383;28;20396;-68
2023/05/10 08:06:11;;;;;;;10.05;6.63;;;14.10;99.90;;;;;;5070278;28;20036;-67
2023/05/10 08:08:40;;;;;;;9.07;6.40;;;14.10;99.90;;;;;;5041112;28;20524;-66
2023/05/10 08:11:05;;;;;;;11.40;6.65;;;14.20;99.90;;;;;;5043001;28;20044;-68
2023/05/10 08:13:31;;;;;;;11.60;7.00;;;14.20;99.90;;;;;;5038585;28;20048;-66
2023/05/10 08:15:56;;;;;;;11.15;7.40;;;14.20;99.90;;;;;;5012760;28;20120;-67
2023/05/10 08:18:22;;;;;;;9.93;6.63;;;14.20;99.90;;;;;;5039326;28;20040;-67
2023/05/10 08:20:48;;;;;;;12.50;7.75;;;14.20;99.90;;;;;;5082514;28;20048;-66
2023/05/10 08:23:14;;;;;;;12.20;7.65;;;14.00;99.90;;;;;;5084183;28;20040;-66
2023/05/10 08:25:40;;;;;;;11.77;7.43;;;14.00;99.90;;;;;;5049607;28;20049;-66
2023/05/10 08:28:05;;;;;;;13.90;7.68;;;14.00;99.90;;;;;;5048980;28;20037;-68
2023/05/10 08:30:31;;;;;;;15.88;8.15;;;14.10;99.90;;;;;;5045662;28;20517;-67
2023/05/10 08:32:56;;;;;;;13.98;8.55;;;14.20;99.90;;;;;;5037722;28;20216;-67
2023/05/10 08:35:22;;;;;;;13.30;8.07;;;14.20;99.90;;;;;;5047820;28;20037;-69
2023/05/10 08:37:47;;;;;;;13.63;8.30;;;14.10;99.90;;;;;;5032069;28;20465;-69
2023/05/10 08:40:15;;;;;;;13.30;8.40;;;13.90;99.90;;;;;;5046465;28;20045;-68
2023/05/10 08:42:51;;;;;;;14.70;8.40;;;13.80;99.90;;;;;;5070389;28;20033;-66
2023/05/10 08:45:18;;;;;;;13.07;7.90;;;13.80;99.90;;;;;;5050875;28;20044;-66
2023/05/10 08:47:43;;;;;;;12.70;8.13;;;13.80;99.90;;;;;;5044987;28;20041;-66
2023/05/10 08:50:10;;;;;;;13.23;7.53;;;13.90;99.90;;;;;;5041450;28;20098;-65
2023/05/10 08:52:39;;;;;;;14.20;8.18;;;13.90;99.90;;;;;;5047754;28;20555;-67
2023/05/10 08:55:06;;;;;;;12.57;8.45;;;13.90;99.90;;;;;;5046855;28;20129;-66
2023/05/10 08:57:31;;;;;;;14.80;9.00;;;13.80;99.90;;;;;;5083878;28;20408;-67
2023/05/10 08:59:58;;;;;;;16.00;8.82;;;13.90;99.90;;;;;;5049869;28;20045;-66
2023/05/10 09:02:24;;;;;;;14.55;8.93;;;14.00;99.90;;;;;;5041987;28;20049;-65
2023/05/10 09:04:50;;;;;;;13.82;8.93;;;14.20;99.90;;;;;;5075259;28;20037;-65
2023/05/10 09:07:16;;;;;;;16.20;10.13;;;14.20;99.90;;;;;;5037141;28;20040;-65
2023/05/10 09:09:48;;;;;;;20.38;10.50;;;14.30;99.90;;;;;;5048483;28;20037;-65
2023/05/10 09:12:15;;;;;;;15.30;10.07;;;14.30;99.90;;;;;;5046108;28;20069;-66
2023/05/10 09:14:42;;;;;;;17.60;10.68;;;14.30;99.90;;;;;;5044561;28;20392;-65
2023/05/10 09:17:07;;;;;;;17.35;10.63;;;14.30;99.90;;;;;;5033322;28;20040;-65
2023/05/10 09:19:33;;;;;;;18.00;10.80;;;14.20;99.90;;;;;;5036102;28;20029;-65
2023/05/10 09:22:00;;;;;;;16.65;9.75;;;14.30;99.90;;;;;;5044852;28;20503;-65
2023/05/10 09:24:26;;;;;;;18.67;10.95;;;14.30;99.90;;;;;;5048055;28;20047;-65
2023/05/10 09:26:52;;;;;;;17.15;10.57;;;14.30;99.90;;;;;;5047474;28;20086;-66
2023/05/10 09:29:18;;;;;;;18.50;10.45;;;14.20;99.90;;;;;;5050223;28;20041;-65
2023/05/10 09:31:50;;;;;;;16.05;9.95;;;14.30;99.90;;;;;;5042940;28;20046;-66
2023/05/10 09:34:20;;;;;;;;;;;14.40;99.90;;;;;;5078041;28;20045;-65
2023/05/10 09:36:57;;;;;;;16.05;10.27;;;14.40;99.90;;;;;;5042888;28;19917;-65
2023/05/10 09:39:37;;;;;;;14.40;9.45;;;14.50;99.90;;;;;;5039720;28;20620;-65
2023/05/10 09:42:05;;;;;;;15.63;9.75;;;14.50;99.90;;;;;;5048919;28;20405;-65
2023/05/10 09:44:35;;;;;;;15.40;10.20;;;14.60;99.90;;;;;;5041237;28;20547;-65
2023/05/10 09:47:03;;;;;;;14.43;9.77;;;14.60;99.90;;;;;;5045535;28;20041;-66
2023/05/10 09:49:29;;;;;;;15.40;10.40;;;14.70;99.90;;;;;;5034979;28;20460;-66
2023/05/10 09:52:06;;;;;;;17.98;10.38;;;14.70;99.90;;;;;;5042193;28;20041;-66
2023/05/10 09:54:32;;;;;;;16.48;10.32;;;14.70;99.90;;;;;;5039009;28;20041;-66
2023/05/10 09:56:58;;;;;;;16.40;9.77;;;14.70;99.90;;;;;;5043536;28;20400;-67
2023/05/10 09:59:27;;;;;;;15.85;10.32;;;14.70;99.90;;;;;;5043858;28;20037;-66
2023/05/10 10:01:59;;;;;;;17.63;10.38;;;14.70;99.90;;;;;;5046724;28;20099;-65
2023/05/10 10:04:26;;;;;;;18.63;10.93;;;14.80;99.90;;;;;;5041847;28;20503;-65
2023/05/10 10:07:00;;;;;;;16.00;10.20;;;14.90;99.90;;;;;;5039418;28;20041;-67
2023/05/10 10:09:27;;;;;;;16.77;11.27;;;14.90;99.90;;;;;;5041382;28;20029;-66
2023/05/10 10:11:54;;;;;;;17.60;11.30;;;15.00;99.90;;;;;;5047861;28;20045;-66
2023/05/10 10:14:21;;;;;;;17.20;11.32;;;15.10;99.90;;;;;;5041000;28;20044;-68
2023/05/10 10:16:49;;;;;;;16.60;10.38;;;15.10;99.90;;;;;;5077572;28;20055;-68
2023/05/10 10:19:15;;;;;;;17.40;11.00;;;15.20;99.90;;;;;;5044162;28;20041;-67
2023/05/10 10:21:40;;;;;;;17.25;10.13;;;15.30;99.90;;;;;;5046879;28;20115;-65
2023/05/10 10:24:06;;;;;;;16.00;9.75;;;15.20;99.90;;;;;;5044005;28;20068;-66
2023/05/10 10:26:37;;;;;;;16.73;10.63;;;15.10;99.90;;;;;;5044712;28;20243;-69
2023/05/10 10:29:20;;;;;;;15.98;10.43;;;15.10;99.90;;;;;;5031883;28;20092;-66
2023/05/10 10:32:14;;;;;;;16.85;10.20;;;15.00;99.90;;;;;;5060132;28;20088;-67
2023/05/10 10:34:40;;;;;;;18.15;9.93;;;15.10;99.90;;;;;;5045078;28;20048;-67
2023/05/10 10:37:06;;;;;;;18.38;10.98;;;15.10;99.90;;;;;;5077063;28;20554;-67
2023/05/10 10:39:32;;;;;;;18.83;11.15;;;14.90;99.90;;;;;;5046805;28;20051;-67
2023/05/10 10:41:58;;;;;;;20.02;11.80;;;14.80;99.90;;;;;;5030659;28;20108;-67
2023/05/10 10:45:10;;;;;;;21.70;12.32;;;14.70;99.90;;;;;;5047077;28;20032;-66
2023/05/10 10:47:37;;;;;;;22.13;12.63;;;14.60;99.90;;;;;;5038409;28;20037;-67
2023/05/10 10:50:05;;;;;;;20.48;12.52;;;14.50;99.90;;;;;;5048829;28;20041;-66
2023/05/10 10:52:38;;;;;;;20.55;12.98;;;14.50;99.90;;;;;;5046803;28;20115;-68
2023/05/10 10:55:11;;;;;;;19.95;12.55;;;14.50;99.90;;;;;;5047217;28;20116;-67
2023/05/10 10:57:47;;;;;;;19.92;12.35;;;14.40;99.90;;;;;;5047704;28;20128;-66
2023/05/10 11:00:33;;;;;;;19.77;12.57;;;14.50;99.90;;;;;;5048750;28;20437;-66
2023/05/10 11:03:08;;;;;;;22.55;13.07;;;14.40;99.90;;;;;;5048263;28;20033;-67
2023/05/10 11:05:49;;;;;;;21.08;12.80;;;14.40;99.90;;;;;;5073131;28;20044;-67
2023/05/10 11:08:17;;;;;;;20.80;13.20;;;14.30;99.90;;;;;;5043123;28;20046;-69
2023/05/10 11:11:09;;;;;;;20.20;12.80;;;14.20;99.90;;;;;;5046096;28;20049;-67
2023/05/10 11:13:39;;;;;;;26.33;13.32;;;14.20;99.90;;;;;;5029205;28;20049;-66
2023/05/10 11:16:23;;;;;;;19.00;11.70;;;14.40;99.90;;;;;;5035125;28;20044;-66
2023/05/10 11:19:07;;;;;;;21.60;11.85;;;14.40;99.90;;;;;;5043850;28;20037;-65
2023/05/10 11:21:34;;;;;;;22.70;12.88;;;14.50;99.90;;;;;;5035004;28;20140;-67
2023/05/10 11:24:05;;;;;;;21.33;13.15;;;14.40;99.90;;;;;;5047441;28;20128;-66
2023/05/10 11:26:33;;;;;;;24.63;13.75;;;14.50;99.90;;;;;;5045856;28;20522;-66
2023/05/10 11:29:01;;;;;;;23.48;13.85;;;14.50;99.90;;;;;;5043548;28;20122;-68
2023/05/10 11:31:27;;;;;;;24.13;13.80;;;14.60;99.90;;;;;;5048098;28;20045;-69
2023/05/10 11:33:58;;;;;;;21.08;13.98;;;14.60;99.90;;;;;;5042329;28;20037;-67
2023/05/10 11:36:35;;;;;;;19.63;12.00;;;14.70;99.90;;;;;;5028820;28;20049;-68
2023/05/10 11:39:01;;;;;;;23.35;13.65;;;14.60;99.90;;;;;;5037578;28;20036;-67
2023/05/10 11:41:28;;;;;;;22.83;13.73;;;14.50;99.90;;;;;;5045987;28;20045;-68
2023/05/10 11:43:55;;;;;;;23.73;13.57;;;14.60;99.90;;;;;;5045539;28;20083;-67
2023/05/10 11:46:23;;;;;;;23.50;13.98;;;14.70;99.90;;;;;;5032202;28;20055;-66
2023/05/10 11:48:51;;;;;;;21.40;12.85;;;14.70;99.90;;;;;;5043000;28;20043;-67
2023/05/10 11:51:21;;;;;;;23.55;13.75;;;14.70;99.90;;;;;;5048342;28;20051;-68
2023/05/10 11:53:47;;;;;;;22.45;14.07;;;14.70;99.90;;;;;;5051268;28;20072;-67
2023/05/10 11:56:12;;;;;;;20.75;12.85;;;14.70;99.90;;;;;;5051463;28;20072;-67
2023/05/10 11:58:39;;;;;;;18.92;12.20;;;14.80;99.90;;;;;;5040515;28;20091;-67
2023/05/10 12:01:06;;;;;;;22.02;13.43;;;14.80;99.90;;;;;;5037078;28;20037;-67
2023/05/10 12:03:32;;;;;;;23.15;13.48;;;14.90;99.90;;;;;;5038737;28;20045;-68
2023/05/10 12:05:59;;;;;;;19.02;12.63;;;15.00;99.90;;;;;;5033911;28;20041;-67
2023/05/10 12:08:26;;;;;;;20.55;12.48;;;15.00;99.90;;;;;;5037473;28;20069;-67
2023/05/10 12:10:53;;;;;;;20.73;12.57;;;15.10;99.90;;;;;;5046755;28;20045;-67
2023/05/10 12:13:20;;;;;;;19.65;12.00;;;15.20;99.90;;;;;;5041944;28;20072;-68
2023/05/10 12:15:46;;;;;;;22.20;13.23;;;15.20;99.90;;;;;;5053867;28;20115;-67
2023/05/10 12:18:22;;;;;;;20.08;11.52;;;15.40;99.90;;;;;;5052135;28;20039;-66
2023/05/10 12:20:47;;;;;;;18.05;9.85;;;15.40;99.90;;;;;;5044306;28;20040;-66
2023/05/10 12:23:15;;;;;;;15.77;10.25;;;15.40;99.90;;;;;;5046922;28;20041;-65
2023/05/10 12:25:40;;;;;;;17.30;10.82;;;15.40;99.90;;;;;;5053892;28;20500;-66
2023/05/10 12:28:24;;;;;;;20.13;11.55;;;15.40;99.90;;;;;;5039281;28;20094;-66
2023/05/10 12:30:53;;;;;;;13.43;8.75;;;15.40;99.90;;;;;;5043076;28;20040;-65
2023/05/10 12:33:19;;;;;;;13.45;8.30;;;15.40;99.90;;;;;;5048569;28;20119;-65
2023/05/10 12:35:46;;;;;;;14.35;9.35;;;15.30;99.90;;;;;;5053199;28;20132;-66